Time;durP1;ratioP1;P1;durP2;ratioP2;P2;SDS_P1;SDS_P2;PMS_P1;PMS_P2;Temp;Humidity;BMP_temperature;BMP_pressure;BME280_temperature;BME280_humidity;BME280_pressure;Samples;Min_cycle;Max_cycle;Signal;HPM_P1;HPM_P2
2023/03/23 00:02:27;;;;;;;2.97;1.25;;;;;;;19.74;45.71;100119.34;4932697;28;20040;-63
2023/03/23 00:04:53;;;;;;;1.48;1.15;;;;;;;19.74;45.33;100122.06;4932700;28;20032;-64
2023/03/23 00:07:21;;;;;;;2.10;1.42;;;;;;;19.73;45.67;100123.13;4944340;28;20039;-63
2023/03/23 00:09:52;;;;;;;2.38;1.40;;;;;;;19.73;46.01;100125.84;4926060;28;20487;-64
2023/03/23 00:12:18;;;;;;;3.95;1.45;;;;;;;19.72;45.82;100132.31;4921746;29;20077;-63
2023/03/23 00:14:44;;;;;;;3.35;1.30;;;;;;;19.73;46.12;100123.13;4921519;29;20521;-63
2023/03/23 00:17:10;;;;;;;1.98;1.23;;;;;;;19.70;45.67;100123.53;4952824;28;20043;-64
2023/03/23 00:19:45;;;;;;;3.13;1.67;;;;;;;19.68;45.77;100114.75;4920977;28;20035;-64
2023/03/23 00:22:14;;;;;;;5.15;2.03;;;;;;;19.67;45.52;100097.59;4952963;28;20031;-63
2023/03/23 00:24:41;;;;;;;3.22;1.30;;;;;;;19.66;45.90;100109.50;4952149;28;20063;-64
2023/03/23 00:27:08;;;;;;;1.88;1.13;;;;;;;19.69;46.43;100108.25;4952375;28;20058;-64
2023/03/23 00:29:34;;;;;;;1.23;0.80;;;;;;;19.69;45.87;100113.69;4952097;28;20037;-63
2023/03/23 00:31:59;;;;;;;3.22;1.50;;;;;;;19.65;46.17;100105.09;4936289;29;20032;-63
2023/03/23 00:34:25;;;;;;;4.57;1.50;;;;;;;19.66;45.41;100122.25;4952083;28;20118;-63
2023/03/23 00:36:57;;;;;;;2.47;1.48;;;;;;;19.68;45.91;100121.00;4953771;29;20085;-63
2023/03/23 00:39:26;;;;;;;1.65;1.30;;;;;;;19.70;46.21;100123.53;4952318;28;20036;-63
2023/03/23 00:41:54;;;;;;;2.13;1.23;;;;;;;19.69;46.17;100128.13;4952022;28;20063;-64
2023/03/23 00:44:23;;;;;;;1.77;1.50;;;;;;;19.72;46.22;100121.44;4920807;28;20427;-63
2023/03/23 00:46:52;;;;;;;3.13;1.60;;;;;;;19.73;46.17;100128.56;4936633;28;20031;-63
2023/03/23 00:49:19;;;;;;;3.97;1.70;;;;;;;19.73;45.58;100125.84;4936781;28;20023;-63
2023/03/23 00:51:45;;;;;;;1.88;1.17;;;;;;;19.73;46.16;100123.13;4935817;28;20035;-63
2023/03/23 00:54:11;;;;;;;1.85;1.42;;;;;;;19.73;46.06;100125.84;4935949;28;20042;-63
2023/03/23 00:56:38;;;;;;;1.52;1.23;;;;;;;19.73;46.35;100134.84;4935881;29;20047;-63
2023/03/23 00:59:04;;;;;;;1.95;1.70;;;;;;;19.74;46.31;100132.94;4951892;28;20044;-63
2023/03/23 01:01:29;;;;;;;2.85;2.28;;;;;;;19.75;45.75;100138.16;4951621;28;20098;-63
2023/03/23 01:04:00;;;;;;;2.78;1.10;;;;;;;19.73;46.22;100123.97;4936170;28;20122;-63
2023/03/23 01:06:27;;;;;;;5.25;1.63;;;;;;;19.75;46.28;100121.03;4967182;28;20402;-63
2023/03/23 01:08:53;;;;;;;2.25;1.60;;;;;;;19.71;46.37;100098.00;4952869;28;20039;-63
2023/03/23 01:11:19;;;;;;;1.55;1.17;;;;;;;19.66;46.33;100095.06;4951991;28;20039;-63
2023/03/23 01:13:44;;;;;;;2.17;1.33;;;;;;;19.69;46.13;100089.22;4952691;28;20054;-64
2023/03/23 01:16:10;;;;;;;1.88;1.17;;;;;;;19.69;46.16;100084.63;4936719;29;20043;-64
2023/03/23 01:18:36;;;;;;;2.20;1.45;;;;;;;19.66;46.55;100081.47;4952693;28;20047;-62
2023/03/23 01:21:10;;;;;;;2.55;1.30;;;;;;;19.63;46.19;100079.19;4951999;28;20565;-65
2023/03/23 01:23:36;;;;;;;1.73;1.15;;;;;;;19.64;46.38;100099.88;4934949;28;20047;-62
2023/03/23 01:26:13;;;;;;;4.30;1.90;;;;;;;19.64;46.23;100091.72;4967489;28;20063;-63
2023/03/23 01:28:39;;;;;;;4.75;1.45;;;;;;;19.63;46.41;100062.88;4935680;28;20138;-63
2023/03/23 01:31:11;;;;;;;1.05;0.98;;;;;;;19.61;46.63;100081.28;4951852;28;20107;-63
2023/03/23 01:33:37;;;;;;;2.45;1.73;;;;;;;19.60;46.69;100058.69;4951320;28;20093;-63
2023/03/23 01:36:05;;;;;;;2.72;1.52;;;;;;;19.60;46.22;100066.00;4951303;28;20027;-63
2023/03/23 01:38:31;;;;;;;3.45;1.65;;;;;;;19.57;46.40;100086.28;4935248;29;20042;-63
2023/03/23 01:40:57;;;;;;;3.05;1.23;;;;;;;19.58;46.41;100084.41;4935376;29;20410;-63
2023/03/23 01:43:22;;;;;;;3.58;1.35;;;;;;;19.57;46.82;100080.03;4967634;28;20031;-63
2023/03/23 01:45:48;;;;;;;3.00;1.63;;;;;;;19.57;46.57;100072.69;4952227;28;20043;-62
2023/03/23 01:48:18;;;;;;;3.00;1.38;;;;;;;19.55;46.49;100060.34;4952335;28;20170;-63
2023/03/23 01:51:12;;;;;;;3.20;1.95;;;;;;;19.54;46.85;100064.13;4951167;28;20035;-63
2023/03/23 01:53:45;;;;;;;3.55;1.88;;;;;;;19.49;46.74;100061.16;4939083;28;20039;-62
2023/03/23 01:56:12;;;;;;;2.15;1.40;;;;;;;19.49;46.55;100067.44;4967175;28;20055;-63
2023/03/23 01:58:38;;;;;;;2.38;1.65;;;;;;;19.53;46.72;100068.72;4934119;28;20036;-63
2023/03/23 02:01:07;;;;;;;1.95;1.30;;;;;;;19.55;46.32;100063.06;4951409;28;20065;-63
2023/03/23 02:03:35;;;;;;;2.20;1.75;;;;;;;19.57;46.61;100069.97;4966830;28;20031;-63
2023/03/23 02:06:00;;;;;;;2.08;1.40;;;;;;;19.59;46.52;100081.50;4951034;28;20032;-63
2023/03/23 02:08:28;;;;;;;1.30;1.20;;;;;;;19.59;46.64;100083.38;4952626;28;20517;-63
2023/03/23 02:10:53;;;;;;;3.30;1.50;;;;;;;19.59;46.53;100080.66;4950986;28;20074;-63
2023/03/23 02:13:19;;;;;;;1.83;1.48;;;;;;;19.59;47.19;100072.50;4951278;28;20054;-63
2023/03/23 02:16:15;;;;;;;2.60;1.90;;;;;;;19.60;46.62;100066.00;4950761;28;20391;-63
2023/03/23 02:18:57;;;;;;;3.60;1.55;;;;;;;19.57;46.38;100058.28;4966685;28;20043;-64
2023/03/23 02:21:55;;;;;;;3.00;1.27;;;;;;;19.54;46.71;100050.56;4950856;28;20039;-63
2023/03/23 02:24:30;;;;;;;2.03;1.30;;;;;;;19.51;46.62;100042.81;4950733;28;20062;-64
2023/03/23 02:27:12;;;;;;;2.20;1.73;;;;;;;19.50;46.92;100049.28;4966489;28;20044;-64
2023/03/23 02:29:47;;;;;;;1.35;1.10;;;;;;;19.45;46.76;100054.50;4934899;29;20081;-65
2023/03/23 02:32:18;;;;;;;5.22;1.52;;;;;;;19.43;47.13;100045.72;4950445;28;20034;-63
2023/03/23 02:35:19;;;;;;;1.85;1.08;;;;;;;19.41;47.36;100054.06;4953179;28;20047;-63
2023/03/23 02:37:49;;;;;;;1.80;1.17;;;;;;;19.38;46.66;100051.75;4964654;28;20036;-63
2023/03/23 02:40:19;;;;;;;5.85;1.50;;;;;;;19.36;46.95;100037.50;4954431;28;20027;-63
2023/03/23 02:42:48;;;;;;;2.45;1.40;;;;;;;19.37;47.40;100050.06;4937853;28;20037;-63
2023/03/23 02:45:15;;;;;;;1.50;1.33;;;;;;;19.39;47.18;100033.56;4939018;29;20050;-68
2023/03/23 02:47:42;;;;;;;2.78;1.63;;;;;;;19.36;47.07;100033.94;4954020;28;20039;-63
2023/03/23 02:50:11;;;;;;;2.25;1.38;;;;;;;19.34;47.32;100031.47;4953723;28;20070;-63
2023/03/23 02:52:36;;;;;;;1.35;1.25;;;;;;;19.37;47.28;100035.63;4937650;28;20043;-63
2023/03/23 02:55:03;;;;;;;2.08;1.08;;;;;;;19.36;47.01;100050.25;4954117;28;20033;-63
2023/03/23 02:57:28;;;;;;;1.42;1.10;;;;;;;19.35;47.27;100037.69;4953858;28;20028;-63
2023/03/23 02:59:54;;;;;;;3.08;1.42;;;;;;;19.33;47.39;100031.66;4953653;28;20552;-63
2023/03/23 03:02:32;;;;;;;5.00;1.10;;;;;;;19.32;47.37;100027.28;4937844;28;20053;-63
2023/03/23 03:05:14;;;;;;;1.65;0.95;;;;;;;19.36;47.12;100044.81;4955091;28;20035;-63
2023/03/23 03:07:45;;;;;;;1.50;1.15;;;;;;;19.36;47.14;100032.09;4937755;28;20413;-63
2023/03/23 03:10:32;;;;;;;1.77;0.98;;;;;;;19.35;47.15;100027.69;4970191;28;20031;-63
2023/03/23 03:13:40;;;;;;;1.00;0.90;;;;;;;19.36;47.41;100028.53;4969710;28;20093;-63
2023/03/23 03:16:35;;;;;;;1.30;1.13;;;;;;;19.34;47.05;100036.03;4971919;28;20053;-64
2023/03/23 03:19:08;;;;;;;1.70;0.95;;;;;;;19.36;47.00;100033.94;4955616;28;20035;-63
2023/03/23 03:21:36;;;;;;;3.30;1.45;;;;;;;19.31;47.61;100025.59;4955409;28;20057;-63
2023/03/23 03:24:03;;;;;;;1.75;0.98;;;;;;;19.35;47.30;100024.13;4971791;28;20039;-63
2023/03/23 03:26:30;;;;;;;2.53;1.17;;;;;;;19.37;47.34;100035.63;4955345;28;20121;-63
2023/03/23 03:28:56;;;;;;;1.55;1.20;;;;;;;19.37;46.83;100030.22;4955467;28;20122;-63
2023/03/23 03:31:26;;;;;;;3.97;1.50;;;;;;;19.40;47.26;100030.66;4939805;28;20118;-63
2023/03/23 03:33:51;;;;;;;1.98;1.20;;;;;;;19.41;46.78;100031.47;4955580;28;20066;-63
2023/03/23 03:36:24;;;;;;;1.80;1.10;;;;;;;19.41;47.18;100034.19;4971316;28;20449;-63
2023/03/23 03:38:51;;;;;;;2.72;1.48;;;;;;;19.42;47.05;100038.59;4955419;28;20125;-63
2023/03/23 03:41:17;;;;;;;3.15;1.40;;;;;;;19.39;46.81;100039.84;4971426;28;20422;-63
2023/03/23 03:43:43;;;;;;;0.95;0.85;;;;;;;19.38;47.46;100026.44;4939045;28;20035;-63
2023/03/23 03:46:08;;;;;;;1.40;1.30;;;;;;;19.38;47.47;100026.44;4936045;28;20097;-63
2023/03/23 03:48:34;;;;;;;1.88;1.15;;;;;;;19.41;47.59;100036.91;4937134;28;20131;-63
2023/03/23 03:51:00;;;;;;;2.08;1.35;;;;;;;19.43;47.26;100035.66;4952889;28;20509;-63
2023/03/23 03:53:26;;;;;;;1.67;1.27;;;;;;;19.44;46.85;100044.66;4937069;28;20041;-63
2023/03/23 03:55:55;;;;;;;1.80;1.40;;;;;;;19.44;47.13;100039.22;4936981;28;20521;-63
2023/03/23 03:58:22;;;;;;;4.72;1.52;;;;;;;19.44;47.12;100037.34;4953564;28;20482;-63
2023/03/23 04:00:48;;;;;;;1.30;1.20;;;;;;;19.43;47.01;100029.41;4952790;28;20043;-63
2023/03/23 04:03:14;;;;;;;1.65;1.15;;;;;;;19.43;46.98;100027.50;4968821;28;20043;-63
2023/03/23 04:05:40;;;;;;;2.25;1.40;;;;;;;19.45;47.59;100033.59;4937005;28;20419;-63
2023/03/23 04:08:05;;;;;;;8.02;1.80;;;;;;;19.45;47.36;100035.47;4951814;28;20503;-63
2023/03/23 04:10:31;;;;;;;2.70;0.82;;;;;;;19.45;47.38;100040.91;4953721;28;20027;-63
2023/03/23 04:12:57;;;;;;;3.35;1.48;;;;;;;19.44;46.99;100041.94;4953184;29;20019;-63
2023/03/23 04:15:23;;;;;;;2.63;1.48;;;;;;;19.45;46.98;100043.63;4920984;29;20544;-63
2023/03/23 04:17:50;;;;;;;5.47;1.23;;;;;;;19.45;47.45;100051.78;4936634;29;20441;-63
2023/03/23 04:20:17;;;;;;;1.83;1.55;;;;;;;19.45;47.28;100046.34;4936552;29;20406;-63
2023/03/23 04:22:44;;;;;;;1.88;1.38;;;;;;;19.43;47.01;100051.16;4953746;28;20037;-63
2023/03/23 04:25:11;;;;;;;1.65;1.25;;;;;;;19.45;46.71;100049.06;4952671;28;20034;-63
2023/03/23 04:27:38;;;;;;;2.10;1.15;;;;;;;19.44;47.09;100052.81;4968310;28;20141;-63
2023/03/23 04:30:05;;;;;;;2.35;1.33;;;;;;;19.45;47.24;100057.22;4953798;28;20058;-65
2023/03/23 04:32:30;;;;;;;3.20;1.20;;;;;;;19.44;46.89;100050.94;4968342;28;20081;-62
2023/03/23 04:34:59;;;;;;;1.63;1.30;;;;;;;19.43;46.72;100051.16;4936432;28;20449;-62
2023/03/23 04:37:28;;;;;;;1.85;1.08;;;;;;;19.46;47.04;100056.16;4921140;28;20035;-63
2023/03/23 04:39:59;;;;;;;2.55;1.15;;;;;;;19.46;47.25;100062.44;4937026;29;20038;-63
2023/03/23 04:42:29;;;;;;;1.55;0.82;;;;;;;19.48;46.70;100060.34;4952697;28;20035;-62
2023/03/23 04:44:56;;;;;;;2.80;0.95;;;;;;;19.48;47.03;100057.66;4952089;28;20120;-62
2023/03/23 04:47:21;;;;;;;1.85;1.20;;;;;;;19.47;46.68;100061.38;4936149;28;20035;-63
2023/03/23 04:49:47;;;;;;;1.08;0.88;;;;;;;19.46;47.04;100058.88;4952254;28;20134;-62
2023/03/23 04:52:13;;;;;;;2.53;0.73;;;;;;;19.46;46.59;100065.13;4953815;28;20027;-63
2023/03/23 04:54:39;;;;;;;2.33;1.08;;;;;;;19.48;46.79;100064.94;4952384;28;20114;-62
2023/03/23 04:57:04;;;;;;;3.15;1.88;;;;;;;19.45;46.85;100063.47;4936077;28;20443;-63
2023/03/23 04:59:30;;;;;;;2.65;1.25;;;;;;;19.45;46.73;100071.63;4935854;28;20061;-63
2023/03/23 05:01:56;;;;;;;4.18;0.88;;;;;;;19.46;46.65;100073.28;4951860;28;20081;-62
2023/03/23 05:04:22;;;;;;;3.67;0.73;;;;;;;19.47;46.49;100068.69;4952110;29;20088;-62
2023/03/23 05:06:48;;;;;;;1.67;0.93;;;;;;;19.46;46.33;100067.00;4935880;28;20031;-63
2023/03/23 05:09:13;;;;;;;2.15;0.80;;;;;;;19.45;46.44;100076.22;4951897;28;20035;-62
2023/03/23 05:11:39;;;;;;;4.20;1.30;;;;;;;19.43;46.83;100068.25;4952924;28;20049;-62
2023/03/23 05:14:05;;;;;;;2.90;0.90;;;;;;;19.45;46.53;100076.22;4951491;28;20039;-63
2023/03/23 05:16:31;;;;;;;2.35;0.85;;;;;;;19.48;46.16;100083.97;4935737;28;20027;-62
2023/03/23 05:18:59;;;;;;;2.80;0.88;;;;;;;19.46;46.07;100073.28;4953137;28;20073;-62
2023/03/23 05:21:25;;;;;;;1.63;0.85;;;;;;;19.48;46.53;100081.25;4951568;28;20406;-63
2023/03/23 05:23:54;;;;;;;3.85;0.70;;;;;;;19.50;46.18;100084.59;4951603;28;20036;-65
2023/03/23 05:26:28;;;;;;;2.15;0.80;;;;;;;19.50;46.45;100079.16;4951911;28;20054;-63
2023/03/23 05:28:54;;;;;;;1.90;0.77;;;;;;;19.49;46.34;100080.19;4951466;28;20054;-63
2023/03/23 05:31:20;;;;;;;3.78;1.35;;;;;;;19.49;46.46;100078.31;4951730;29;20533;-63
2023/03/23 05:33:45;;;;;;;1.80;1.10;;;;;;;19.51;46.20;100095.28;4952574;28;20031;-63
2023/03/23 05:36:13;;;;;;;3.50;1.17;;;;;;;19.50;46.54;100079.16;4935332;28;20042;-62
2023/03/23 05:38:45;;;;;;;3.97;0.75;;;;;;;19.52;46.41;100087.94;4953245;28;20036;-63
2023/03/23 05:41:14;;;;;;;1.10;0.52;;;;;;;19.52;46.38;100085.22;4952293;28;20043;-63
2023/03/23 05:43:40;;;;;;;3.05;1.10;;;;;;;19.53;46.54;100089.63;4952096;28;20445;-63
2023/03/23 05:46:06;;;;;;;2.92;0.88;;;;;;;19.50;46.01;100085.44;4920107;28;20061;-63
2023/03/23 05:48:32;;;;;;;4.03;1.00;;;;;;;19.48;45.79;100092.97;4935790;28;20039;-63
2023/03/23 05:50:58;;;;;;;3.60;0.80;;;;;;;19.54;46.14;100104.88;4951766;28;20054;-63
2023/03/23 05:53:23;;;;;;;2.13;1.10;;;;;;;19.54;46.19;100096.75;4967436;28;20503;-63
2023/03/23 05:55:49;;;;;;;1.98;0.80;;;;;;;19.55;45.80;100087.53;4951030;28;20376;-63
2023/03/23 05:58:15;;;;;;;2.42;0.60;;;;;;;19.58;45.90;100103.41;4952961;28;20048;-63
2023/03/23 06:00:41;;;;;;;2.00;1.15;;;;;;;19.63;45.44;100100.91;4951048;28;20035;-63
2023/03/23 06:03:06;;;;;;;0.63;0.63;;;;;;;19.66;45.64;100105.94;4916685;29;20044;-63
2023/03/23 06:05:32;;;;;;;4.90;1.20;;;;;;;19.65;46.01;100094.22;4931789;28;20035;-63
2023/03/23 06:07:58;;;;;;;2.17;0.88;;;;;;;19.64;45.85;100091.72;4931844;28;20036;-63
2023/03/23 06:10:24;;;;;;;2.83;0.90;;;;;;;19.64;45.41;100091.72;4932523;28;20038;-64
2023/03/23 06:12:51;;;;;;;1.10;0.82;;;;;;;19.65;45.52;100104.28;4932176;29;20020;-63
2023/03/23 06:15:16;;;;;;;2.05;0.90;;;;;;;19.62;45.29;100099.25;4932057;28;20035;-63
2023/03/23 06:17:42;;;;;;;2.00;0.82;;;;;;;19.64;45.54;100102.59;4931740;28;20036;-64
2023/03/23 06:20:09;;;;;;;2.53;1.02;;;;;;;19.62;45.49;100088.41;4931477;28;20060;-63
2023/03/23 06:22:39;;;;;;;2.63;0.82;;;;;;;19.57;45.46;100090.91;4931563;28;20042;-63
2023/03/23 06:25:06;;;;;;;2.22;0.60;;;;;;;19.63;45.72;100111.78;4932179;29;20058;-63
2023/03/23 06:27:31;;;;;;;2.85;0.90;;;;;;;19.66;45.36;100111.38;4930386;28;20097;-64
2023/03/23 06:29:57;;;;;;;2.95;0.73;;;;;;;19.67;45.20;100107.63;4931695;29;20036;-65
2023/03/23 06:32:24;;;;;;;3.30;0.90;;;;;;;19.71;45.11;100119.75;4916798;28;20035;-62
2023/03/23 06:34:49;;;;;;;3.97;0.85;;;;;;;19.74;45.70;100130.22;4932111;28;20028;-62
2023/03/23 06:37:15;;;;;;;5.70;1.48;;;;;;;19.77;45.25;100129.81;4933579;29;20390;-62
2023/03/23 06:39:41;;;;;;;4.13;1.08;;;;;;;19.77;45.78;100140.66;4915684;28;20044;-62
2023/03/23 06:42:10;;;;;;;6.22;1.10;;;;;;;19.75;45.46;100140.03;4915669;28;20086;-62
2023/03/23 06:44:35;;;;;;;1.45;0.57;;;;;;;19.77;44.94;100135.22;4932702;28;20036;-62
2023/03/23 06:47:01;;;;;;;1.00;0.65;;;;;;;19.78;45.29;100145.06;4931916;28;20078;-62
2023/03/23 06:49:27;;;;;;;2.25;1.00;;;;;;;19.76;45.33;100144.44;4948139;28;20103;-62
2023/03/23 06:51:53;;;;;;;2.78;0.80;;;;;;;19.75;45.49;100140.88;4934724;29;20106;-63
2023/03/23 06:54:18;;;;;;;2.67;0.80;;;;;;;19.72;45.12;100148.59;4931433;29;20031;-62
2023/03/23 06:56:43;;;;;;;2.90;1.25;;;;;;;19.75;46.14;100148.19;4932660;28;20402;-63
2023/03/23 06:59:10;;;;;;;0.80;0.60;;;;;;;19.77;45.50;100140.66;4947416;28;20040;-64
2023/03/23 07:01:36;;;;;;;3.17;0.70;;;;;;;19.83;45.19;100139.84;4931446;28;20032;-63
2023/03/23 07:04:01;;;;;;;3.88;0.68;;;;;;;19.86;45.07;100153.03;4931785;28;20031;-61
2023/03/23 07:06:27;;;;;;;1.25;0.57;;;;;;;19.87;45.27;100149.28;4947131;28;20111;-63
2023/03/23 07:08:52;;;;;;;1.35;0.85;;;;;;;19.88;45.27;100134.63;4931702;28;20079;-62
2023/03/23 07:11:18;;;;;;;1.92;0.80;;;;;;;19.88;45.50;100139.25;4931156;29;20032;-62
2023/03/23 07:13:43;;;;;;;1.83;0.73;;;;;;;19.88;45.40;100133.81;4946928;28;20044;-62
2023/03/23 07:16:10;;;;;;;1.83;0.50;;;;;;;19.88;44.59;100131.91;4931410;28;20216;-62
2023/03/23 07:18:36;;;;;;;2.97;0.70;;;;;;;19.89;45.25;100124.59;4931271;28;20093;-61
2023/03/23 07:21:02;;;;;;;4.07;0.70;;;;;;;19.91;45.19;100136.94;4931105;28;20027;-63
2023/03/23 07:23:29;;;;;;;7.07;1.10;;;;;;;19.94;45.15;100132.97;4918270;28;20403;-61
2023/03/23 07:25:55;;;;;;;2.63;0.70;;;;;;;19.99;45.06;100138.66;4918097;28;20043;-62
2023/03/23 07:28:21;;;;;;;1.75;1.25;;;;;;;20.02;45.17;100139.03;4935750;29;20028;-62
2023/03/23 07:30:46;;;;;;;5.75;1.00;;;;;;;20.02;44.75;100128.16;4949891;28;20054;-62
2023/03/23 07:33:12;;;;;;;1.67;0.68;;;;;;;20.05;45.25;100127.75;4934084;28;20034;-62
2023/03/23 07:35:37;;;;;;;0.68;0.63;;;;;;;20.09;44.97;100131.75;4933981;28;20117;-62
2023/03/23 07:38:04;;;;;;;3.83;0.70;;;;;;;20.12;44.97;100134.06;4933932;28;20581;-62
2023/03/23 07:40:33;;;;;;;3.55;1.00;;;;;;;20.17;44.64;100137.00;4933976;28;20568;-62
2023/03/23 07:42:58;;;;;;;1.50;0.70;;;;;;;20.22;44.63;100134.47;4934515;29;20020;-62
2023/03/23 07:45:24;;;;;;;3.00;0.50;;;;;;;20.24;44.67;100143.28;4918230;28;20086;-62
2023/03/23 07:47:50;;;;;;;1.58;0.80;;;;;;;20.28;44.39;100149.16;4934077;28;20036;-62
2023/03/23 07:50:16;;;;;;;0.90;0.60;;;;;;;20.30;44.93;100164.22;4934033;28;20055;-62
2023/03/23 07:52:42;;;;;;;6.50;0.80;;;;;;;20.35;44.26;100151.88;4933659;28;20027;-62
2023/03/23 07:55:17;;;;;;;1.48;0.73;;;;;;;20.36;44.06;100150.81;4950020;28;20454;-62
2023/03/23 07:57:47;;;;;;;4.05;0.80;;;;;;;20.40;44.08;100146.66;4934502;28;20422;-62
2023/03/23 08:00:18;;;;;;;3.03;0.95;;;;;;;20.45;44.10;100149.56;4933590;28;20039;-62
2023/03/23 08:02:45;;;;;;;3.05;0.93;;;;;;;20.50;44.30;100157.94;4933932;29;20035;-62
2023/03/23 08:05:13;;;;;;;3.30;0.98;;;;;;;20.51;44.06;100155.03;4933546;28;20078;-61
2023/03/23 08:07:39;;;;;;;3.00;0.85;;;;;;;20.55;43.99;100166.31;4933651;28;20035;-61
2023/03/23 08:10:06;;;;;;;5.18;0.63;;;;;;;20.57;43.95;100161.50;4902356;28;20034;-62
2023/03/23 08:12:31;;;;;;;2.38;0.90;;;;;;;20.66;44.02;100165.69;4933404;28;20044;-62
2023/03/23 08:14:56;;;;;;;4.18;0.90;;;;;;;20.71;43.53;100166.75;4933496;28;20058;-62
2023/03/23 08:17:22;;;;;;;2.78;0.63;;;;;;;20.78;44.12;100164.84;4933511;28;20497;-62
2023/03/23 08:19:47;;;;;;;3.00;0.70;;;;;;;20.86;43.98;100171.94;4933456;28;20051;-63
2023/03/23 08:22:13;;;;;;;1.98;0.60;;;;;;;20.96;44.50;100174.22;4934954;29;20031;-63
2023/03/23 08:24:39;;;;;;;0.82;0.60;;;;;;;21.01;43.71;100168.97;4949012;28;20093;-63
2023/03/23 08:27:06;;;;;;;2.35;0.88;;;;;;;21.06;43.31;100174.63;4933101;28;20040;-62
2023/03/23 08:29:32;;;;;;;2.92;0.77;;;;;;;21.05;43.54;100184.66;4934281;28;20035;-62
2023/03/23 08:31:58;;;;;;;1.55;0.98;;;;;;;20.96;44.13;100180.53;4948678;28;20032;-62
2023/03/23 08:34:24;;;;;;;2.70;0.80;;;;;;;20.88;43.54;100172.59;4933055;28;20444;-64
2023/03/23 08:36:51;;;;;;;5.60;0.82;;;;;;;20.81;44.29;100183.47;4934726;29;20061;-62
2023/03/23 08:39:17;;;;;;;2.13;0.82;;;;;;;20.76;44.24;100180.56;4933210;28;20499;-62
2023/03/23 08:41:44;;;;;;;3.53;1.05;;;;;;;20.77;44.29;100181.41;4933007;28;20111;-62
2023/03/23 08:44:10;;;;;;;5.53;0.73;;;;;;;20.77;43.90;100181.41;4901695;28;20032;-62
2023/03/23 08:46:35;;;;;;;0.98;0.77;;;;;;;20.80;43.79;100187.22;4932841;28;20034;-61
2023/03/23 08:49:00;;;;;;;2.00;0.80;;;;;;;20.78;44.31;100196.66;4917721;28;20027;-62
2023/03/23 08:51:26;;;;;;;3.25;0.60;;;;;;;20.72;43.76;100197.50;4933998;28;20036;-62
2023/03/23 08:53:52;;;;;;;3.05;1.25;;;;;;;20.65;43.68;100205.69;4934080;28;20040;-62
2023/03/23 08:56:17;;;;;;;0.90;0.73;;;;;;;20.56;44.65;100206.09;4932863;28;20088;-62
2023/03/23 08:58:43;;;;;;;3.20;0.50;;;;;;;20.49;44.51;100211.53;4932822;28;20511;-62
2023/03/23 09:01:10;;;;;;;2.30;0.60;;;;;;;20.44;43.96;100224.91;4901699;28;20047;-61
2023/03/23 09:03:35;;;;;;;4.15;1.45;;;;;;;20.42;44.41;100237.91;4932799;28;20042;-62
2023/03/23 09:06:03;;;;;;;3.13;0.40;;;;;;;20.38;44.16;100252.13;4916848;28;20036;-62
2023/03/23 09:08:29;;;;;;;0.30;0.20;;;;;;;20.30;44.59;100256.72;4916882;29;20032;-62
2023/03/23 09:11:03;;;;;;;0.47;0.10;;;;;;;20.22;44.13;100265.03;4932670;28;20062;-62
2023/03/23 09:13:28;;;;;;;0.45;0.20;;;;;;;20.16;44.11;100276.72;4934160;28;20038;-62
2023/03/23 09:15:54;;;;;;;0.28;0.20;;;;;;;20.02;44.62;100263.28;4917203;29;20023;-62
2023/03/23 09:18:20;;;;;;;1.65;0.30;;;;;;;19.92;44.78;100258.25;4933787;28;20035;-62
2023/03/23 09:20:46;;;;;;;1.08;0.25;;;;;;;19.84;44.50;100247.56;4900811;28;20515;-63
2023/03/23 09:23:12;;;;;;;1.08;0.25;;;;;;;19.75;44.46;100267.78;4948203;28;20112;-63
2023/03/23 09:25:38;;;;;;;0.75;0.30;;;;;;;19.65;44.90;100268.16;4932328;28;20067;-62
2023/03/23 09:28:04;;;;;;;0.98;0.22;;;;;;;19.57;45.37;100257.44;4932888;29;20032;-61
2023/03/23 09:30:32;;;;;;;0.40;0.40;;;;;;;19.46;44.81;100274.31;4948133;28;20048;-61
2023/03/23 09:33:00;;;;;;;0.30;0.30;;;;;;;19.36;46.16;100264.81;4916706;28;20134;-62
2023/03/23 09:35:27;;;;;;;0.22;0.10;;;;;;;19.26;45.42;100278.78;4932585;29;20040;-62
2023/03/23 09:37:53;;;;;;;1.55;0.32;;;;;;;19.14;45.57;100270.34;4916497;29;20036;-62
2023/03/23 09:40:30;;;;;;;0.88;0.13;;;;;;;19.09;46.09;100251.09;4932533;28;20406;-63
2023/03/23 09:43:14;;;;;;;1.27;0.30;;;;;;;19.05;46.33;100266.09;4916395;28;20039;-62
2023/03/23 09:45:56;;;;;;;2.22;0.38;;;;;;;18.99;45.88;100272.31;4932744;28;20047;-62
2023/03/23 09:48:36;;;;;;;0.20;0.20;;;;;;;18.93;45.94;100262.22;4916416;28;20039;-62
2023/03/23 09:51:38;;;;;;;1.73;0.20;;;;;;;18.84;46.45;100279.72;4932144;28;20044;-62
2023/03/23 09:54:10;;;;;;;1.15;0.50;;;;;;;18.70;46.82;100272.50;4937594;28;20105;-62
2023/03/23 09:56:36;;;;;;;0.22;0.20;;;;;;;18.64;46.53;100278.69;4932006;28;20032;-62
2023/03/23 09:59:15;;;;;;;1.30;0.20;;;;;;;18.53;46.53;100282.78;4932120;28;20032;-62
2023/03/23 10:01:46;;;;;;;1.35;0.10;;;;;;;18.51;46.83;100284.81;4952242;28;20063;-62
2023/03/23 10:04:33;;;;;;;0.28;0.28;;;;;;;18.49;46.84;100277.91;5035564;28;20037;-62
2023/03/23 10:07:09;;;;;;;0.73;0.20;;;;;;;18.44;46.69;100288.47;4919696;29;20480;-63
2023/03/23 10:09:35;;;;;;;1.77;0.32;;;;;;;18.44;47.09;100289.31;4952464;28;20035;-63
2023/03/23 10:12:14;;;;;;;0.22;0.20;;;;;;;18.49;47.24;100291.47;4950772;28;20047;-64
2023/03/23 10:14:55;;;;;;;1.67;0.20;;;;;;;18.49;46.68;100303.16;4950830;28;20089;-63
2023/03/23 10:17:42;;;;;;;0.60;0.30;;;;;;;18.49;47.37;100315.88;4950719;28;20047;-64
2023/03/23 10:20:32;;;;;;;0.50;0.28;;;;;;;18.44;46.96;100310.16;4950801;28;20414;-64
2023/03/23 10:23:20;;;;;;;1.00;0.60;;;;;;;18.46;47.50;100297.25;4951894;28;20043;-64
2023/03/23 10:26:05;;;;;;;0.88;0.60;;;;;;;18.52;47.70;100301.94;4951559;28;20119;-64
2023/03/23 10:28:38;;;;;;;3.65;0.68;;;;;;;18.72;46.95;100304.84;4934648;28;20035;-63
2023/03/23 10:31:05;;;;;;;1.48;1.05;;;;;;;18.96;46.75;100294.41;4935148;29;20030;-63
2023/03/23 10:33:48;;;;;;;5.35;0.73;;;;;;;19.08;47.01;100289.28;4934712;28;20035;-63
2023/03/23 10:36:17;;;;;;;3.65;0.47;;;;;;;19.18;47.23;100303.34;4950593;28;20122;-63
2023/03/23 10:39:03;;;;;;;0.93;0.93;;;;;;;19.20;47.38;100306.72;4950735;28;20081;-63
2023/03/23 10:41:30;;;;;;;1.38;0.32;;;;;;;19.37;47.28;100308.09;4971398;28;20529;-63
2023/03/23 10:43:56;;;;;;;2.55;0.50;;;;;;;19.51;47.03;100311.78;4951722;28;20464;-63
2023/03/23 10:46:54;;;;;;;4.18;0.88;;;;;;;19.55;47.69;100310.31;4952104;28;20027;-62
2023/03/23 10:49:24;;;;;;;3.55;0.80;;;;;;;19.55;47.57;100311.16;4969258;28;20505;-62
2023/03/23 10:52:10;;;;;;;1.52;1.05;;;;;;;19.51;47.56;100317.22;4950846;29;20027;-62
2023/03/23 10:54:38;;;;;;;1.13;0.95;;;;;;;19.53;47.41;100324.13;4952214;28;20047;-62
2023/03/23 10:57:28;;;;;;;2.65;0.77;;;;;;;19.63;47.16;100315.59;4937504;28;20118;-63
2023/03/23 10:59:58;;;;;;;0.50;0.50;;;;;;;19.68;47.29;100308.50;4953728;28;20042;-62
2023/03/23 11:02:24;;;;;;;1.17;1.08;;;;;;;19.61;48.05;100301.38;4953496;28;20109;-63
2023/03/23 11:04:59;;;;;;;1.90;0.70;;;;;;;19.59;47.47;100300.75;4954914;28;20478;-63
2023/03/23 11:07:30;;;;;;;0.77;0.50;;;;;;;19.57;47.17;100308.25;4953539;28;20081;-67
2023/03/23 11:09:58;;;;;;;0.75;0.55;;;;;;;19.53;47.32;100306.97;5038395;28;20030;-66
2023/03/23 11:12:24;;;;;;;2.75;0.70;;;;;;;19.49;47.50;100308.41;4937596;28;20039;-67
2023/03/23 11:14:49;;;;;;;1.70;1.05;;;;;;;19.40;47.35;100315.03;4953378;28;20122;-66
2023/03/23 11:17:26;;;;;;;3.67;0.90;;;;;;;19.30;47.50;100300.94;4953313;28;20035;-69
2023/03/23 11:19:54;;;;;;;4.03;1.08;;;;;;;19.30;47.89;100309.91;4937632;28;20057;-69
2023/03/23 11:22:22;;;;;;;1.48;0.50;;;;;;;19.27;48.27;100317.63;4954952;28;20027;-68
2023/03/23 11:24:55;;;;;;;0.70;0.40;;;;;;;19.25;47.96;100300.69;4953340;28;20060;-67
2023/03/23 11:27:21;;;;;;;1.92;0.73;;;;;;;19.29;48.16;100304.69;4969306;28;20522;-68
2023/03/23 11:29:56;;;;;;;1.27;0.80;;;;;;;19.24;48.68;100299.00;4969350;28;20115;-67
2023/03/23 11:32:29;;;;;;;4.07;0.47;;;;;;;19.21;48.79;100296.72;4953258;28;20407;-67
2023/03/23 11:35:04;;;;;;;1.02;0.52;;;;;;;19.17;49.08;100304.41;4953491;28;20490;-66